Terminal Aerodrome Forecast
Issued by NWS

Home | Current Version | Previous Version | Text Only | Print | Product List | Glossary On
Versions: 1 2 3 4 5 6 7 8 9 10 11 12 13 14 15 16 17 18 19 20 21 22 23
000
FTUS46 KPDT 191139
TAFDLS
TAF
KDLS 191139Z 1912/2012 VRB02KT 3SM -RA BR SCT020 OVC035
      TEMPO 1912/1916 1SM -RA BR BKN007 OVC025
     FM191600 VRB02KT 2SM BR OVC020
     FM191900 VRB03KT P6SM BKN050 OVC100
     FM192300 VRB05KT P6SM -SHRA OVC050
     FM200700 11003KT 6SM -RA BR OVC025=

USA.gov is the U.S. government's official web portal to all federal, state and local government web resources and services.